Ana Sayfa
METAR-TAF:

METAR-TAF

Havaalanları :

Meadow Lake, Saskatchewan, Kanada

Enlem: 54-08N, Boylam: 108-31W, yükseklik: 480 m

Güncel hava durumu gözlemi

Rapor saat 00:00 UTC de 11 saat ve 26 dakika önce yapıldı.
Rüzgar doğu/kuzeydoğudan 6 kt
Sıcaklık -21°C
Nem 77%
Basınç 1021 hPa
Görüş mesafesi: 24.1 km
10000 ft yükseklikte parçalı çok bulutlu

METAR: CYLJ 120000Z 07006KT 15SM BKN100 M21/M24 A3014 RMK AC7 LAST STFD OB/NXT 12 1200UTC SLP264

Saat: 05:26 (11:26 UTC)


TAF: eksik

4.000'den fazla havaalanı için hava durumu gözlemleri ve tahminleri (METAR ve TAF raporları).

Kullanılabilir istasyonlar harita üzerinde sarı ve kırmızı noktalarla gösterilir.

İstasyonun adını görmek için fareyi noktanın üzerinde gezdirin.

Sonrasında hava gözlem ve tahminlerini görmek için tıklayın.

Haritayı değiştirmek için: yaklaştırmak için siyah artı işaretli yeşil düğmeye ve uzaklaştırmak için de eksi işaretli düğmeye hızla tıklayın; bitişik haritalar için yeşil okları kullanın.


METAR-TAF: